sensor_id;sensor_type;location;lat;lon;timestamp;P1;durP1;ratioP1;P2;durP2;ratioP2
26277;SDS011;14000;52.056;8.510;2024-03-08T00:00:40;51.73;;;25.67;;
26277;SDS011;14000;52.056;8.510;2024-03-08T00:03:07;45.67;;;24.30;;
26277;SDS011;14000;52.056;8.510;2024-03-08T00:05:35;48.80;;;24.00;;
26277;SDS011;14000;52.056;8.510;2024-03-08T00:08:01;46.83;;;24.03;;
26277;SDS011;14000;52.056;8.510;2024-03-08T00:10:26;41.40;;;23.07;;
26277;SDS011;14000;52.056;8.510;2024-03-08T00:12:53;44.90;;;23.13;;
26277;SDS011;14000;52.056;8.510;2024-03-08T00:15:19;43.43;;;23.07;;
26277;SDS011;14000;52.056;8.510;2024-03-08T00:17:47;46.60;;;23.93;;
26277;SDS011;14000;52.056;8.510;2024-03-08T00:20:13;43.17;;;22.57;;
26277;SDS011;14000;52.056;8.510;2024-03-08T00:22:39;41.17;;;22.00;;
26277;SDS011;14000;52.056;8.510;2024-03-08T00:25:06;44.07;;;22.67;;
26277;SDS011;14000;52.056;8.510;2024-03-08T00:27:35;44.30;;;22.67;;
26277;SDS011;14000;52.056;8.510;2024-03-08T00:30:01;44.07;;;23.03;;
26277;SDS011;14000;52.056;8.510;2024-03-08T00:32:27;42.37;;;22.57;;
26277;SDS011;14000;52.056;8.510;2024-03-08T00:34:53;41.47;;;22.83;;
26277;SDS011;14000;52.056;8.510;2024-03-08T00:37:19;44.50;;;23.53;;
26277;SDS011;14000;52.056;8.510;2024-03-08T00:39:47;44.30;;;22.40;;
26277;SDS011;14000;52.056;8.510;2024-03-08T00:42:14;43.30;;;23.10;;
26277;SDS011;14000;52.056;8.510;2024-03-08T00:44:40;43.97;;;23.47;;
26277;SDS011;14000;52.056;8.510;2024-03-08T00:47:06;46.07;;;24.57;;
26277;SDS011;14000;52.056;8.510;2024-03-08T00:49:31;49.03;;;24.97;;
26277;SDS011;14000;52.056;8.510;2024-03-08T00:51:57;46.10;;;24.73;;
26277;SDS011;14000;52.056;8.510;2024-03-08T00:54:23;45.20;;;23.23;;
26277;SDS011;14000;52.056;8.510;2024-03-08T00:56:48;44.83;;;23.77;;
26277;SDS011;14000;52.056;8.510;2024-03-08T00:59:14;42.63;;;22.40;;
26277;SDS011;14000;52.056;8.510;2024-03-08T01:01:43;44.00;;;22.67;;
26277;SDS011;14000;52.056;8.510;2024-03-08T01:04:09;47.00;;;23.87;;
26277;SDS011;14000;52.056;8.510;2024-03-08T01:06:35;47.87;;;23.77;;
26277;SDS011;14000;52.056;8.510;2024-03-08T01:09:02;45.00;;;22.80;;
26277;SDS011;14000;52.056;8.510;2024-03-08T01:11:28;41.03;;;22.13;;
26277;SDS011;14000;52.056;8.510;2024-03-08T01:13:53;43.73;;;22.93;;
26277;SDS011;14000;52.056;8.510;2024-03-08T01:16:19;43.13;;;22.97;;
26277;SDS011;14000;52.056;8.510;2024-03-08T01:18:46;50.07;;;24.90;;
26277;SDS011;14000;52.056;8.510;2024-03-08T01:21:12;46.90;;;24.73;;
26277;SDS011;14000;52.056;8.510;2024-03-08T01:23:37;44.63;;;23.73;;
26277;SDS011;14000;52.056;8.510;2024-03-08T01:26:03;48.33;;;24.27;;
26277;SDS011;14000;52.056;8.510;2024-03-08T01:28:29;46.50;;;23.77;;
26277;SDS011;14000;52.056;8.510;2024-03-08T01:30:55;47.00;;;24.10;;
26277;SDS011;14000;52.056;8.510;2024-03-08T01:33:22;56.07;;;25.80;;
26277;SDS011;14000;52.056;8.510;2024-03-08T01:35:50;46.97;;;24.43;;
26277;SDS011;14000;52.056;8.510;2024-03-08T01:38:19;52.20;;;24.43;;
26277;SDS011;14000;52.056;8.510;2024-03-08T01:40:48;48.03;;;23.17;;
26277;SDS011;14000;52.056;8.510;2024-03-08T01:43:18;45.43;;;23.43;;
26277;SDS011;14000;52.056;8.510;2024-03-08T01:45:50;48.70;;;24.67;;
26277;SDS011;14000;52.056;8.510;2024-03-08T01:48:16;51.57;;;24.70;;
26277;SDS011;14000;52.056;8.510;2024-03-08T01:50:42;47.17;;;25.43;;
26277;SDS011;14000;52.056;8.510;2024-03-08T01:53:09;45.83;;;24.23;;
26277;SDS011;14000;52.056;8.510;2024-03-08T01:55:36;50.00;;;26.83;;
26277;SDS011;14000;52.056;8.510;2024-03-08T01:58:03;47.77;;;25.23;;
26277;SDS011;14000;52.056;8.510;2024-03-08T02:00:30;48.17;;;25.07;;
26277;SDS011;14000;52.056;8.510;2024-03-08T02:02:58;46.17;;;24.60;;
26277;SDS011;14000;52.056;8.510;2024-03-08T02:05:23;50.50;;;25.33;;
26277;SDS011;14000;52.056;8.510;2024-03-08T02:07:49;45.37;;;24.23;;
26277;SDS011;14000;52.056;8.510;2024-03-08T02:10:15;48.37;;;24.97;;
26277;SDS011;14000;52.056;8.510;2024-03-08T02:12:41;46.37;;;24.50;;
26277;SDS011;14000;52.056;8.510;2024-03-08T02:15:07;50.90;;;24.73;;
26277;SDS011;14000;52.056;8.510;2024-03-08T02:17:33;52.10;;;24.60;;
26277;SDS011;14000;52.056;8.510;2024-03-08T02:19:59;46.93;;;24.00;;
26277;SDS011;14000;52.056;8.510;2024-03-08T02:22:26;44.67;;;23.47;;
26277;SDS011;14000;52.056;8.510;2024-03-08T02:24:53;48.27;;;23.97;;
26277;SDS011;14000;52.056;8.510;2024-03-08T02:27:26;45.90;;;24.07;;
26277;SDS011;14000;52.056;8.510;2024-03-08T02:29:55;45.50;;;23.60;;
26277;SDS011;14000;52.056;8.510;2024-03-08T02:32:22;47.80;;;24.37;;
26277;SDS011;14000;52.056;8.510;2024-03-08T02:34:48;46.97;;;25.17;;
26277;SDS011;14000;52.056;8.510;2024-03-08T02:37:15;47.90;;;25.70;;
26277;SDS011;14000;52.056;8.510;2024-03-08T02:39:41;47.60;;;25.00;;
26277;SDS011;14000;52.056;8.510;2024-03-08T02:42:06;49.23;;;24.67;;
26277;SDS011;14000;52.056;8.510;2024-03-08T02:44:32;57.10;;;27.93;;
26277;SDS011;14000;52.056;8.510;2024-03-08T02:47:01;55.63;;;26.03;;
26277;SDS011;14000;52.056;8.510;2024-03-08T02:49:27;48.43;;;25.00;;
26277;SDS011;14000;52.056;8.510;2024-03-08T02:51:53;45.97;;;24.07;;
26277;SDS011;14000;52.056;8.510;2024-03-08T02:54:19;54.93;;;27.23;;
26277;SDS011;14000;52.056;8.510;2024-03-08T02:56:45;54.50;;;27.57;;
26277;SDS011;14000;52.056;8.510;2024-03-08T02:59:11;49.37;;;25.17;;
26277;SDS011;14000;52.056;8.510;2024-03-08T03:01:42;52.77;;;25.37;;
26277;SDS011;14000;52.056;8.510;2024-03-08T03:04:08;56.60;;;26.73;;
26277;SDS011;14000;52.056;8.510;2024-03-08T03:06:34;54.13;;;26.30;;
26277;SDS011;14000;52.056;8.510;2024-03-08T03:09:00;52.40;;;26.83;;
26277;SDS011;14000;52.056;8.510;2024-03-08T03:11:26;55.17;;;27.10;;
26277;SDS011;14000;52.056;8.510;2024-03-08T03:13:52;52.77;;;26.10;;
26277;SDS011;14000;52.056;8.510;2024-03-08T03:16:18;54.47;;;27.33;;
26277;SDS011;14000;52.056;8.510;2024-03-08T03:18:45;50.50;;;26.53;;
26277;SDS011;14000;52.056;8.510;2024-03-08T03:21:11;55.07;;;27.60;;
26277;SDS011;14000;52.056;8.510;2024-03-08T03:23:38;51.73;;;26.57;;
26277;SDS011;14000;52.056;8.510;2024-03-08T03:26:05;51.73;;;27.40;;
26277;SDS011;14000;52.056;8.510;2024-03-08T03:28:32;53.20;;;26.90;;
26277;SDS011;14000;52.056;8.510;2024-03-08T03:30:58;53.27;;;27.30;;
26277;SDS011;14000;52.056;8.510;2024-03-08T03:33:24;54.00;;;27.17;;
26277;SDS011;14000;52.056;8.510;2024-03-08T03:35:50;50.23;;;27.57;;
26277;SDS011;14000;52.056;8.510;2024-03-08T03:38:17;52.60;;;27.33;;
26277;SDS011;14000;52.056;8.510;2024-03-08T03:40:44;52.37;;;27.30;;
26277;SDS011;14000;52.056;8.510;2024-03-08T03:43:11;54.37;;;27.67;;
26277;SDS011;14000;52.056;8.510;2024-03-08T03:45:36;55.90;;;28.27;;
26277;SDS011;14000;52.056;8.510;2024-03-08T03:48:05;53.43;;;27.33;;
26277;SDS011;14000;52.056;8.510;2024-03-08T03:50:33;54.70;;;28.90;;
26277;SDS011;14000;52.056;8.510;2024-03-08T03:53:00;55.80;;;27.43;;
26277;SDS011;14000;52.056;8.510;2024-03-08T03:55:25;59.77;;;29.20;;
26277;SDS011;14000;52.056;8.510;2024-03-08T03:57:52;58.80;;;29.03;;
26277;SDS011;14000;52.056;8.510;2024-03-08T04:00:17;55.87;;;27.50;;
26277;SDS011;14000;52.056;8.510;2024-03-08T04:02:43;63.10;;;29.27;;
26277;SDS011;14000;52.056;8.510;2024-03-08T04:05:09;50.97;;;27.87;;
26277;SDS011;14000;52.056;8.510;2024-03-08T04:07:36;60.20;;;29.30;;
26277;SDS011;14000;52.056;8.510;2024-03-08T04:10:03;56.33;;;28.47;;
26277;SDS011;14000;52.056;8.510;2024-03-08T04:12:31;57.93;;;28.20;;
26277;SDS011;14000;52.056;8.510;2024-03-08T04:15:00;55.77;;;28.93;;
26277;SDS011;14000;52.056;8.510;2024-03-08T04:17:25;57.77;;;28.70;;
26277;SDS011;14000;52.056;8.510;2024-03-08T04:19:51;59.87;;;28.93;;
26277;SDS011;14000;52.056;8.510;2024-03-08T04:22:17;60.73;;;30.10;;
26277;SDS011;14000;52.056;8.510;2024-03-08T04:24:45;59.03;;;28.70;;
26277;SDS011;14000;52.056;8.510;2024-03-08T04:27:11;61.53;;;30.27;;
26277;SDS011;14000;52.056;8.510;2024-03-08T04:29:37;61.97;;;30.60;;
26277;SDS011;14000;52.056;8.510;2024-03-08T04:32:03;61.73;;;30.60;;
26277;SDS011;14000;52.056;8.510;2024-03-08T04:34:30;61.53;;;31.03;;
26277;SDS011;14000;52.056;8.510;2024-03-08T04:36:59;58.87;;;30.70;;
26277;SDS011;14000;52.056;8.510;2024-03-08T04:39:25;55.80;;;29.87;;
26277;SDS011;14000;52.056;8.510;2024-03-08T04:41:53;58.57;;;29.37;;
26277;SDS011;14000;52.056;8.510;2024-03-08T04:44:22;57.30;;;29.50;;
26277;SDS011;14000;52.056;8.510;2024-03-08T04:46:49;57.13;;;30.17;;
26277;SDS011;14000;52.056;8.510;2024-03-08T04:49:15;62.10;;;30.20;;
26277;SDS011;14000;52.056;8.510;2024-03-08T04:51:40;63.47;;;31.47;;
26277;SDS011;14000;52.056;8.510;2024-03-08T04:54:06;60.37;;;31.00;;
26277;SDS011;14000;52.056;8.510;2024-03-08T04:56:32;59.33;;;30.00;;
26277;SDS011;14000;52.056;8.510;2024-03-08T04:58:58;66.50;;;30.13;;
26277;SDS011;14000;52.056;8.510;2024-03-08T05:01:24;67.30;;;31.90;;
26277;SDS011;14000;52.056;8.510;2024-03-08T05:03:50;62.37;;;32.27;;
26277;SDS011;14000;52.056;8.510;2024-03-08T05:06:16;59.67;;;30.83;;
26277;SDS011;14000;52.056;8.510;2024-03-08T05:08:42;65.17;;;31.53;;
26277;SDS011;14000;52.056;8.510;2024-03-08T05:11:07;62.90;;;31.63;;
26277;SDS011;14000;52.056;8.510;2024-03-08T05:13:33;64.50;;;32.67;;
26277;SDS011;14000;52.056;8.510;2024-03-08T05:15:59;64.90;;;31.83;;
26277;SDS011;14000;52.056;8.510;2024-03-08T05:18:25;65.10;;;33.67;;
26277;SDS011;14000;52.056;8.510;2024-03-08T05:20:53;60.53;;;30.93;;
26277;SDS011;14000;52.056;8.510;2024-03-08T05:23:19;65.93;;;32.63;;
26277;SDS011;14000;52.056;8.510;2024-03-08T05:25:45;65.97;;;31.43;;
26277;SDS011;14000;52.056;8.510;2024-03-08T05:28:13;61.20;;;31.23;;
26277;SDS011;14000;52.056;8.510;2024-03-08T05:30:39;66.53;;;31.43;;
26277;SDS011;14000;52.056;8.510;2024-03-08T05:33:05;65.53;;;31.57;;
26277;SDS011;14000;52.056;8.510;2024-03-08T05:35:30;70.00;;;33.73;;
26277;SDS011;14000;52.056;8.510;2024-03-08T05:37:57;71.60;;;32.87;;
26277;SDS011;14000;52.056;8.510;2024-03-08T05:40:23;63.83;;;32.30;;
26277;SDS011;14000;52.056;8.510;2024-03-08T05:42:49;62.20;;;32.47;;
26277;SDS011;14000;52.056;8.510;2024-03-08T05:45:14;62.23;;;32.27;;
26277;SDS011;14000;52.056;8.510;2024-03-08T05:47:40;61.60;;;30.47;;
26277;SDS011;14000;52.056;8.510;2024-03-08T05:50:06;64.17;;;31.17;;
26277;SDS011;14000;52.056;8.510;2024-03-08T05:52:36;57.90;;;30.23;;
26277;SDS011;14000;52.056;8.510;2024-03-08T05:55:03;63.30;;;31.50;;
26277;SDS011;14000;52.056;8.510;2024-03-08T05:57:32;63.87;;;31.40;;
26277;SDS011;14000;52.056;8.510;2024-03-08T05:59:58;68.90;;;33.80;;
26277;SDS011;14000;52.056;8.510;2024-03-08T06:02:23;65.40;;;32.60;;
26277;SDS011;14000;52.056;8.510;2024-03-08T06:04:49;66.63;;;32.50;;
26277;SDS011;14000;52.056;8.510;2024-03-08T06:07:15;59.77;;;31.27;;
26277;SDS011;14000;52.056;8.510;2024-03-08T06:09:42;64.33;;;32.43;;
26277;SDS011;14000;52.056;8.510;2024-03-08T06:12:11;64.10;;;31.77;;
26277;SDS011;14000;52.056;8.510;2024-03-08T06:14:36;67.63;;;32.07;;
26277;SDS011;14000;52.056;8.510;2024-03-08T06:17:02;68.07;;;33.87;;
26277;SDS011;14000;52.056;8.510;2024-03-08T06:19:31;64.20;;;31.80;;
26277;SDS011;14000;52.056;8.510;2024-03-08T06:21:56;63.77;;;32.80;;
26277;SDS011;14000;52.056;8.510;2024-03-08T06:24:22;65.07;;;32.43;;
26277;SDS011;14000;52.056;8.510;2024-03-08T06:26:47;65.70;;;31.47;;
26277;SDS011;14000;52.056;8.510;2024-03-08T06:29:13;63.30;;;31.07;;
26277;SDS011;14000;52.056;8.510;2024-03-08T06:31:40;64.07;;;32.20;;
26277;SDS011;14000;52.056;8.510;2024-03-08T06:34:06;65.87;;;32.17;;
26277;SDS011;14000;52.056;8.510;2024-03-08T06:36:32;66.47;;;32.13;;
26277;SDS011;14000;52.056;8.510;2024-03-08T06:38:59;65.67;;;32.13;;
26277;SDS011;14000;52.056;8.510;2024-03-08T06:41:24;60.80;;;31.33;;
26277;SDS011;14000;52.056;8.510;2024-03-08T06:43:50;57.43;;;30.33;;
26277;SDS011;14000;52.056;8.510;2024-03-08T06:46:22;68.33;;;32.53;;
26277;SDS011;14000;52.056;8.510;2024-03-08T06:48:48;62.00;;;30.30;;
26277;SDS011;14000;52.056;8.510;2024-03-08T06:51:17;71.37;;;34.07;;
26277;SDS011;14000;52.056;8.510;2024-03-08T06:53:43;67.13;;;33.47;;
26277;SDS011;14000;52.056;8.510;2024-03-08T06:56:08;60.43;;;31.03;;
26277;SDS011;14000;52.056;8.510;2024-03-08T06:58:34;67.17;;;31.73;;
26277;SDS011;14000;52.056;8.510;2024-03-08T07:00:59;66.77;;;31.70;;
26277;SDS011;14000;52.056;8.510;2024-03-08T07:03:28;66.17;;;31.97;;
26277;SDS011;14000;52.056;8.510;2024-03-08T07:05:55;63.67;;;31.10;;
26277;SDS011;14000;52.056;8.510;2024-03-08T07:08:23;64.80;;;31.63;;
26277;SDS011;14000;52.056;8.510;2024-03-08T07:10:49;59.07;;;29.67;;
26277;SDS011;14000;52.056;8.510;2024-03-08T07:13:14;61.03;;;30.80;;
26277;SDS011;14000;52.056;8.510;2024-03-08T07:15:41;66.77;;;30.83;;
26277;SDS011;14000;52.056;8.510;2024-03-08T07:18:08;70.33;;;32.13;;
26277;SDS011;14000;52.056;8.510;2024-03-08T07:20:34;69.07;;;32.33;;
26277;SDS011;14000;52.056;8.510;2024-03-08T07:23:02;57.87;;;29.43;;
26277;SDS011;14000;52.056;8.510;2024-03-08T07:25:28;61.17;;;31.00;;
26277;SDS011;14000;52.056;8.510;2024-03-08T07:27:54;60.83;;;31.70;;
26277;SDS011;14000;52.056;8.510;2024-03-08T07:30:24;56.50;;;28.33;;
26277;SDS011;14000;52.056;8.510;2024-03-08T07:33:09;59.20;;;30.17;;
26277;SDS011;14000;52.056;8.510;2024-03-08T07:35:38;64.37;;;31.20;;
26277;SDS011;14000;52.056;8.510;2024-03-08T07:38:05;62.23;;;30.70;;
26277;SDS011;14000;52.056;8.510;2024-03-08T07:40:41;58.83;;;30.67;;
26277;SDS011;14000;52.056;8.510;2024-03-08T07:43:10;57.43;;;30.33;;
26277;SDS011;14000;52.056;8.510;2024-03-08T07:45:39;60.87;;;30.13;;
26277;SDS011;14000;52.056;8.510;2024-03-08T07:48:05;60.40;;;29.97;;
26277;SDS011;14000;52.056;8.510;2024-03-08T07:50:36;60.47;;;29.40;;
26277;SDS011;14000;52.056;8.510;2024-03-08T07:53:02;72.17;;;35.20;;
26277;SDS011;14000;52.056;8.510;2024-03-08T07:55:28;62.20;;;30.83;;
26277;SDS011;14000;52.056;8.510;2024-03-08T07:57:56;68.23;;;32.27;;
26277;SDS011;14000;52.056;8.510;2024-03-08T08:00:21;58.33;;;29.67;;
26277;SDS011;14000;52.056;8.510;2024-03-08T08:02:47;57.50;;;30.47;;
26277;SDS011;14000;52.056;8.510;2024-03-08T08:05:14;61.70;;;30.97;;
26277;SDS011;14000;52.056;8.510;2024-03-08T08:07:46;56.23;;;29.23;;
26277;SDS011;14000;52.056;8.510;2024-03-08T08:10:12;61.07;;;31.10;;
26277;SDS011;14000;52.056;8.510;2024-03-08T08:12:46;62.07;;;31.63;;
26277;SDS011;14000;52.056;8.510;2024-03-08T08:15:16;56.10;;;30.10;;
26277;SDS011;14000;52.056;8.510;2024-03-08T08:17:43;61.47;;;32.37;;
26277;SDS011;14000;52.056;8.510;2024-03-08T08:20:09;56.87;;;30.77;;
26277;SDS011;14000;52.056;8.510;2024-03-08T08:22:36;60.20;;;30.47;;
26277;SDS011;14000;52.056;8.510;2024-03-08T08:25:04;55.60;;;28.97;;
26277;SDS011;14000;52.056;8.510;2024-03-08T08:27:29;57.37;;;31.07;;
26277;SDS011;14000;52.056;8.510;2024-03-08T08:29:55;55.90;;;29.30;;
26277;SDS011;14000;52.056;8.510;2024-03-08T08:32:21;60.13;;;32.03;;
26277;SDS011;14000;52.056;8.510;2024-03-08T08:34:47;59.57;;;30.73;;
26277;SDS011;14000;52.056;8.510;2024-03-08T08:37:13;51.97;;;29.03;;
26277;SDS011;14000;52.056;8.510;2024-03-08T08:39:38;56.57;;;30.63;;
26277;SDS011;14000;52.056;8.510;2024-03-08T08:42:04;56.33;;;30.67;;
26277;SDS011;14000;52.056;8.510;2024-03-08T08:44:30;57.17;;;29.27;;
26277;SDS011;14000;52.056;8.510;2024-03-08T08:47:00;59.43;;;31.20;;
26277;SDS011;14000;52.056;8.510;2024-03-08T08:49:25;56.87;;;28.63;;
26277;SDS011;14000;52.056;8.510;2024-03-08T08:51:51;55.37;;;30.03;;
26277;SDS011;14000;52.056;8.510;2024-03-08T08:54:17;52.50;;;29.23;;
26277;SDS011;14000;52.056;8.510;2024-03-08T08:56:43;54.57;;;29.07;;
26277;SDS011;14000;52.056;8.510;2024-03-08T08:59:09;51.03;;;28.43;;
26277;SDS011;14000;52.056;8.510;2024-03-08T09:01:39;52.97;;;30.03;;
26277;SDS011;14000;52.056;8.510;2024-03-08T09:04:04;55.20;;;29.47;;
26277;SDS011;14000;52.056;8.510;2024-03-08T09:06:31;56.30;;;29.63;;
26277;SDS011;14000;52.056;8.510;2024-03-08T09:08:56;52.13;;;28.17;;
26277;SDS011;14000;52.056;8.510;2024-03-08T09:11:22;51.13;;;28.57;;
26277;SDS011;14000;52.056;8.510;2024-03-08T09:13:50;54.00;;;28.93;;
26277;SDS011;14000;52.056;8.510;2024-03-08T09:16:15;54.27;;;28.93;;
26277;SDS011;14000;52.056;8.510;2024-03-08T09:18:41;48.87;;;27.07;;
26277;SDS011;14000;52.056;8.510;2024-03-08T09:21:07;52.87;;;28.27;;
26277;SDS011;14000;52.056;8.510;2024-03-08T09:23:35;50.80;;;29.17;;
26277;SDS011;14000;52.056;8.510;2024-03-08T09:26:01;54.13;;;28.30;;
26277;SDS011;14000;52.056;8.510;2024-03-08T09:28:28;54.47;;;29.23;;
26277;SDS011;14000;52.056;8.510;2024-03-08T09:30:54;55.27;;;28.20;;
26277;SDS011;14000;52.056;8.510;2024-03-08T09:33:20;51.20;;;27.57;;
26277;SDS011;14000;52.056;8.510;2024-03-08T09:35:47;49.93;;;26.63;;
26277;SDS011;14000;52.056;8.510;2024-03-08T09:38:13;50.57;;;26.93;;
26277;SDS011;14000;52.056;8.510;2024-03-08T09:40:42;48.47;;;25.83;;
26277;SDS011;14000;52.056;8.510;2024-03-08T09:43:08;50.03;;;27.00;;
26277;SDS011;14000;52.056;8.510;2024-03-08T09:45:37;47.10;;;27.50;;
26277;SDS011;14000;52.056;8.510;2024-03-08T09:48:10;47.17;;;26.73;;
26277;SDS011;14000;52.056;8.510;2024-03-08T09:50:40;47.53;;;25.40;;
26277;SDS011;14000;52.056;8.510;2024-03-08T09:53:06;49.07;;;26.90;;
26277;SDS011;14000;52.056;8.510;2024-03-08T09:55:36;47.53;;;26.73;;
26277;SDS011;14000;52.056;8.510;2024-03-08T09:58:05;44.37;;;25.63;;
26277;SDS011;14000;52.056;8.510;2024-03-08T10:00:49;48.07;;;25.23;;
26277;SDS011;14000;52.056;8.510;2024-03-08T10:03:15;43.93;;;24.77;;
26277;SDS011;14000;52.056;8.510;2024-03-08T10:05:41;43.33;;;25.10;;
26277;SDS011;14000;52.056;8.510;2024-03-08T10:08:09;48.53;;;25.80;;
26277;SDS011;14000;52.056;8.510;2024-03-08T10:10:36;44.17;;;24.20;;
26277;SDS011;14000;52.056;8.510;2024-03-08T10:13:05;45.97;;;24.43;;
26277;SDS011;14000;52.056;8.510;2024-03-08T10:15:31;39.60;;;23.53;;
26277;SDS011;14000;52.056;8.510;2024-03-08T10:18:00;40.57;;;22.17;;
26277;SDS011;14000;52.056;8.510;2024-03-08T10:20:27;45.40;;;24.03;;
26277;SDS011;14000;52.056;8.510;2024-03-08T10:22:58;43.97;;;23.77;;
26277;SDS011;14000;52.056;8.510;2024-03-08T10:25:28;45.53;;;23.63;;
26277;SDS011;14000;52.056;8.510;2024-03-08T10:27:57;42.47;;;23.60;;
26277;SDS011;14000;52.056;8.510;2024-03-08T10:30:23;41.43;;;22.60;;
26277;SDS011;14000;52.056;8.510;2024-03-08T10:32:48;42.27;;;22.23;;
26277;SDS011;14000;52.056;8.510;2024-03-08T10:35:14;40.87;;;23.10;;
26277;SDS011;14000;52.056;8.510;2024-03-08T10:37:44;41.07;;;22.17;;
26277;SDS011;14000;52.056;8.510;2024-03-08T10:40:19;41.20;;;22.67;;
26277;SDS011;14000;52.056;8.510;2024-03-08T10:42:51;43.20;;;24.27;;
26277;SDS011;14000;52.056;8.510;2024-03-08T10:45:32;39.00;;;22.80;;
26277;SDS011;14000;52.056;8.510;2024-03-08T10:50:53;37.67;;;21.17;;
26277;SDS011;14000;52.056;8.510;2024-03-08T10:53:18;39.30;;;21.90;;
26277;SDS011;14000;52.056;8.510;2024-03-08T10:55:47;39.03;;;21.63;;
26277;SDS011;14000;52.056;8.510;2024-03-08T10:58:18;38.33;;;21.40;;
26277;SDS011;14000;52.056;8.510;2024-03-08T11:00:48;40.07;;;22.70;;
26277;SDS011;14000;52.056;8.510;2024-03-08T11:06:16;39.63;;;20.57;;
26277;SDS011;14000;52.056;8.510;2024-03-08T11:08:44;36.00;;;20.97;;
26277;SDS011;14000;52.056;8.510;2024-03-08T11:11:31;36.67;;;21.63;;
26277;SDS011;14000;52.056;8.510;2024-03-08T11:13:59;39.57;;;21.70;;
26277;SDS011;14000;52.056;8.510;2024-03-08T11:18:59;43.53;;;22.40;;
26277;SDS011;14000;52.056;8.510;2024-03-08T11:21:54;42.50;;;22.60;;
26277;SDS011;14000;52.056;8.510;2024-03-08T11:24:22;39.57;;;22.57;;
26277;SDS011;14000;52.056;8.510;2024-03-08T11:26:48;38.77;;;22.23;;
26277;SDS011;14000;52.056;8.510;2024-03-08T11:32:30;40.90;;;22.83;;
26277;SDS011;14000;52.056;8.510;2024-03-08T11:34:53;39.43;;;22.60;;
26277;SDS011;14000;52.056;8.510;2024-03-08T11:37:20;53.90;;;28.87;;
26277;SDS011;14000;52.056;8.510;2024-03-08T11:39:47;38.23;;;21.43;;
26277;SDS011;14000;52.056;8.510;2024-03-08T11:42:17;35.67;;;20.30;;
26277;SDS011;14000;52.056;8.510;2024-03-08T11:44:44;33.90;;;20.07;;
26277;SDS011;14000;52.056;8.510;2024-03-08T11:47:10;35.53;;;22.33;;
26277;SDS011;14000;52.056;8.510;2024-03-08T11:49:37;31.43;;;19.13;;
26277;SDS011;14000;52.056;8.510;2024-03-08T11:52:04;35.40;;;22.23;;
26277;SDS011;14000;52.056;8.510;2024-03-08T11:54:30;32.87;;;20.57;;
26277;SDS011;14000;52.056;8.510;2024-03-08T11:56:59;31.17;;;20.17;;
26277;SDS011;14000;52.056;8.510;2024-03-08T11:59:28;28.17;;;18.83;;
26277;SDS011;14000;52.056;8.510;2024-03-08T12:02:01;29.33;;;19.57;;
26277;SDS011;14000;52.056;8.510;2024-03-08T12:04:31;30.03;;;19.23;;
26277;SDS011;14000;52.056;8.510;2024-03-08T12:07:01;27.03;;;17.90;;
26277;SDS011;14000;52.056;8.510;2024-03-08T12:09:30;26.57;;;17.70;;
26277;SDS011;14000;52.056;8.510;2024-03-08T12:11:58;26.17;;;18.23;;
26277;SDS011;14000;52.056;8.510;2024-03-08T12:14:24;32.90;;;19.90;;
26277;SDS011;14000;52.056;8.510;2024-03-08T12:16:50;31.00;;;20.50;;
26277;SDS011;14000;52.056;8.510;2024-03-08T12:19:16;28.07;;;18.63;;
26277;SDS011;14000;52.056;8.510;2024-03-08T12:21:42;32.07;;;20.83;;
26277;SDS011;14000;52.056;8.510;2024-03-08T12:24:14;30.20;;;19.77;;
26277;SDS011;14000;52.056;8.510;2024-03-08T12:26:46;31.00;;;19.00;;
26277;SDS011;14000;52.056;8.510;2024-03-08T12:29:22;30.87;;;18.30;;
26277;SDS011;14000;52.056;8.510;2024-03-08T12:31:52;28.77;;;18.20;;
26277;SDS011;14000;52.056;8.510;2024-03-08T12:34:27;28.97;;;18.33;;
26277;SDS011;14000;52.056;8.510;2024-03-08T12:36:53;28.60;;;17.10;;
26277;SDS011;14000;52.056;8.510;2024-03-08T12:39:20;29.70;;;17.53;;
26277;SDS011;14000;52.056;8.510;2024-03-08T12:41:55;29.67;;;18.37;;
26277;SDS011;14000;52.056;8.510;2024-03-08T12:44:25;29.90;;;17.83;;
26277;SDS011;14000;52.056;8.510;2024-03-08T12:46:51;29.43;;;17.83;;
26277;SDS011;14000;52.056;8.510;2024-03-08T12:49:18;28.23;;;16.30;;
26277;SDS011;14000;52.056;8.510;2024-03-08T12:51:47;29.23;;;16.50;;
26277;SDS011;14000;52.056;8.510;2024-03-08T12:54:13;28.07;;;16.27;;
26277;SDS011;14000;52.056;8.510;2024-03-08T12:56:39;29.27;;;16.73;;
26277;SDS011;14000;52.056;8.510;2024-03-08T12:59:05;32.53;;;18.17;;
26277;SDS011;14000;52.056;8.510;2024-03-08T13:01:35;28.97;;;16.70;;
26277;SDS011;14000;52.056;8.510;2024-03-08T13:04:04;29.87;;;17.13;;
26277;SDS011;14000;52.056;8.510;2024-03-08T13:06:31;29.40;;;17.30;;
26277;SDS011;14000;52.056;8.510;2024-03-08T13:08:57;30.30;;;17.03;;
26277;SDS011;14000;52.056;8.510;2024-03-08T13:11:24;31.83;;;19.00;;
26277;SDS011;14000;52.056;8.510;2024-03-08T13:13:50;32.53;;;19.20;;
26277;SDS011;14000;52.056;8.510;2024-03-08T13:16:17;30.57;;;17.77;;
26277;SDS011;14000;52.056;8.510;2024-03-08T13:18:44;36.07;;;21.30;;
26277;SDS011;14000;52.056;8.510;2024-03-08T13:21:13;35.37;;;20.37;;
26277;SDS011;14000;52.056;8.510;2024-03-08T13:23:40;35.97;;;21.07;;
26277;SDS011;14000;52.056;8.510;2024-03-08T13:26:10;36.57;;;20.83;;
26277;SDS011;14000;52.056;8.510;2024-03-08T13:28:40;32.40;;;19.00;;
26277;SDS011;14000;52.056;8.510;2024-03-08T13:31:23;30.53;;;18.90;;
26277;SDS011;14000;52.056;8.510;2024-03-08T13:33:49;43.13;;;23.90;;
26277;SDS011;14000;52.056;8.510;2024-03-08T13:36:16;37.97;;;21.87;;
26277;SDS011;14000;52.056;8.510;2024-03-08T13:38:46;35.10;;;20.63;;
26277;SDS011;14000;52.056;8.510;2024-03-08T13:41:13;34.87;;;20.87;;
26277;SDS011;14000;52.056;8.510;2024-03-08T13:43:48;35.47;;;20.80;;
26277;SDS011;14000;52.056;8.510;2024-03-08T13:46:14;33.37;;;19.83;;
26277;SDS011;14000;52.056;8.510;2024-03-08T13:48:40;36.23;;;20.17;;
26277;SDS011;14000;52.056;8.510;2024-03-08T13:51:06;36.60;;;20.17;;
26277;SDS011;14000;52.056;8.510;2024-03-08T13:53:35;36.90;;;20.03;;
26277;SDS011;14000;52.056;8.510;2024-03-08T13:56:04;31.13;;;18.37;;
26277;SDS011;14000;52.056;8.510;2024-03-08T13:58:30;33.30;;;20.47;;
26277;SDS011;14000;52.056;8.510;2024-03-08T14:00:56;36.87;;;21.93;;
26277;SDS011;14000;52.056;8.510;2024-03-08T14:03:22;35.67;;;20.83;;
26277;SDS011;14000;52.056;8.510;2024-03-08T14:05:49;30.23;;;18.97;;
26277;SDS011;14000;52.056;8.510;2024-03-08T14:08:15;34.97;;;21.13;;
26277;SDS011;14000;52.056;8.510;2024-03-08T14:10:42;32.17;;;19.57;;
26277;SDS011;14000;52.056;8.510;2024-03-08T14:13:08;37.00;;;20.97;;
26277;SDS011;14000;52.056;8.510;2024-03-08T14:15:34;34.30;;;19.47;;
26277;SDS011;14000;52.056;8.510;2024-03-08T14:18:00;33.97;;;20.00;;
26277;SDS011;14000;52.056;8.510;2024-03-08T14:20:31;34.43;;;20.90;;
26277;SDS011;14000;52.056;8.510;2024-03-08T14:22:57;34.27;;;21.27;;
26277;SDS011;14000;52.056;8.510;2024-03-08T14:25:23;41.73;;;23.13;;
26277;SDS011;14000;52.056;8.510;2024-03-08T14:27:49;31.70;;;20.10;;
26277;SDS011;14000;52.056;8.510;2024-03-08T14:30:18;29.37;;;18.47;;
26277;SDS011;14000;52.056;8.510;2024-03-08T14:33:00;30.03;;;19.07;;